Time;durP1;ratioP1;P1;durP2;ratioP2;P2;SDS_P1;SDS_P2;PMS_P1;PMS_P2;Temp;Humidity;BMP_temperature;BMP_pressure;BME280_temperature;BME280_humidity;BME280_pressure;Samples;Min_cycle;Max_cycle;Signal;HPM_P1;HPM_P2
2022/03/27 00:01:49;;;;;;;;;;;14.90;52.80;;;;;;6342097;22;19919;-91
2022/03/27 00:04:15;;;;;;;;;;;14.90;52.70;;;;;;6340855;22;19903;-92
2022/03/27 00:06:40;;;;;;;;;;;14.90;52.70;;;;;;6340618;22;20011;-92
2022/03/27 00:09:06;;;;;;;;;;;14.80;52.70;;;;;;6341841;22;19917;-93
2022/03/27 00:11:35;;;;;;;;;;;14.80;52.80;;;;;;6341334;22;19906;-92
2022/03/27 00:14:05;;;;;;;;;;;14.70;52.90;;;;;;6341843;22;19915;-92
2022/03/27 00:16:31;;;;;;;;;;;14.70;53.00;;;;;;6315291;22;19914;-92
2022/03/27 00:18:56;;;;;;;;;;;14.60;53.00;;;;;;6316228;22;19989;-93
2022/03/27 00:21:22;;;;;;;;;;;14.60;53.30;;;;;;6315772;22;19964;-92
2022/03/27 00:23:48;;;;;;;;;;;14.50;53.40;;;;;;6316138;22;19974;-92
2022/03/27 00:26:14;;;;;;;;;;;14.50;53.40;;;;;;6317094;22;20224;-92
2022/03/27 00:28:40;;;;;;;;;;;14.50;53.40;;;;;;6316832;22;20258;-93
2022/03/27 00:31:07;;;;;;;;;;;14.50;53.40;;;;;;6315671;22;19921;-92
2022/03/27 00:33:34;;;;;;;;;;;14.50;53.40;;;;;;6343231;22;19921;-92
2022/03/27 00:36:00;;;;;;;;;;;14.50;53.30;;;;;;6316153;22;19925;-92
2022/03/27 00:38:25;;;;;;;;;;;14.50;53.30;;;;;;6315758;22;20273;-92
2022/03/27 00:40:52;;;;;;;;;;;14.40;53.20;;;;;;6342486;22;20309;-92
2022/03/27 00:43:18;;;;;;;;;;;14.40;53.00;;;;;;6314675;22;19913;-93
2022/03/27 00:45:46;;;;;;;;;;;14.40;53.00;;;;;;6314942;22;20184;-92
2022/03/27 00:48:13;;;;;;;;;;;14.40;52.80;;;;;;6340829;22;19907;-93
2022/03/27 00:50:38;;;;;;;;;;;14.40;52.70;;;;;;6315841;22;20234;-92
2022/03/27 00:53:04;;;;;;;;;;;14.30;52.70;;;;;;6344212;22;19907;-92
2022/03/27 00:55:29;;;;;;;;;;;14.30;52.70;;;;;;6342065;22;20234;-92
2022/03/27 00:57:55;;;;;;;;;;;14.30;52.50;;;;;;6343175;22;19933;-92
2022/03/27 01:00:39;;;;;;;;;;;14.30;52.50;;;;;;6342577;22;19955;-92
2022/03/27 01:03:05;;;;;;;;;;;14.30;52.50;;;;;;6314809;22;19922;-91
2022/03/27 01:05:31;;;;;;;;;;;14.30;52.50;;;;;;6316305;22;19971;-92
2022/03/27 01:07:57;;;;;;;;;;;14.30;52.40;;;;;;6317105;22;20292;-91
2022/03/27 01:10:23;;;;;;;;;;;14.20;52.40;;;;;;6316521;22;19952;-92
2022/03/27 01:12:49;;;;;;;;;;;14.10;52.40;;;;;;6342769;22;19914;-91
2022/03/27 01:15:24;;;;;;;;;;;14.00;52.40;;;;;;6341674;22;19939;-90
2022/03/27 01:17:50;;;;;;;;;;;13.90;52.40;;;;;;6315240;22;19981;-92
2022/03/27 01:20:27;;;;;;;;;;;13.80;52.40;;;;;;6314233;22;19910;-92
2022/03/27 01:22:52;;;;;;;;;;;13.70;52.20;;;;;;6314139;22;19911;-93
2022/03/27 01:25:18;;;;;;;;;;;13.60;52.20;;;;;;6342711;22;19903;-90
2022/03/27 01:27:43;;;;;;;;;;;13.40;52.30;;;;;;6342836;22;19906;-90
2022/03/27 01:30:10;;;;;;;;;;;13.30;52.40;;;;;;6340720;22;19922;-92
2022/03/27 01:32:35;;;;;;;;;;;13.20;52.50;;;;;;6314156;22;20307;-92
2022/03/27 01:35:01;;;;;;;;;;;13.00;52.80;;;;;;6341032;22;19920;-91
2022/03/27 01:37:26;;;;;;;;;;;12.90;52.80;;;;;;6344769;22;19910;-92
2022/03/27 01:39:52;;;;;;;;;;;12.80;52.90;;;;;;6342285;22;19911;-91
2022/03/27 01:42:17;;;;;;;;;;;12.70;53.20;;;;;;6340096;22;19903;-91
2022/03/27 01:44:42;;;;;;;;;;;12.60;53.30;;;;;;6340232;22;19911;-92
2022/03/27 01:47:08;;;;;;;;;;;12.50;53.50;;;;;;6339806;22;19906;-91
2022/03/27 01:49:35;;;;;;;;;;;12.40;53.40;;;;;;6340080;22;19910;-91
2022/03/27 01:52:00;;;;;;;;;;;12.40;53.60;;;;;;6313875;22;20329;-91
2022/03/27 01:54:26;;;;;;;;;;;12.30;53.80;;;;;;6343003;22;19914;-91
2022/03/27 01:56:52;;;;;;;;;;;12.30;53.80;;;;;;6343143;22;20280;-92
2022/03/27 01:59:20;;;;;;;;;;;12.20;53.70;;;;;;6343021;22;19938;-91
2022/03/27 02:01:46;;;;;;;;;;;12.20;53.70;;;;;;6340631;22;19911;-91
2022/03/27 02:04:12;;;;;;;;;;;12.10;53.80;;;;;;6315197;22;19929;-91
2022/03/27 02:06:37;;;;;;;;;;;12.10;53.90;;;;;;6340978;22;20231;-92
2022/03/27 02:09:03;;;;;;;;;;;12.00;53.90;;;;;;6341426;22;20327;-92
2022/03/27 02:11:28;;;;;;;;;;;12.00;54.00;;;;;;6315299;22;20123;-91
2022/03/27 02:13:54;;;;;;;;;;;12.00;54.10;;;;;;6343581;22;19915;-91
2022/03/27 02:16:20;;;;;;;;;;;11.90;54.20;;;;;;6315871;22;19906;-91
2022/03/27 02:18:45;;;;;;;;;;;11.90;54.40;;;;;;6343604;22;19906;-91
2022/03/27 02:21:11;;;;;;;;;;;11.90;54.40;;;;;;6341288;22;19913;-91
2022/03/27 02:23:37;;;;;;;;;;;11.90;54.50;;;;;;6340506;22;19993;-92
2022/03/27 02:26:03;;;;;;;;;;;11.90;54.50;;;;;;6343149;22;19914;-91
2022/03/27 02:28:28;;;;;;;;;;;11.90;54.50;;;;;;6343673;22;19915;-92
2022/03/27 02:30:53;;;;;;;;;;;12.00;54.40;;;;;;6315239;22;19903;-93
2022/03/27 02:33:19;;;;;;;;;;;12.00;54.30;;;;;;6340584;22;19937;-92
2022/03/27 02:35:45;;;;;;;;;;;12.00;54.20;;;;;;6340950;22;20365;-92
2022/03/27 02:38:10;;;;;;;;;;;12.00;53.90;;;;;;6340957;22;19918;-91
2022/03/27 02:40:36;;;;;;;;;;;12.10;53.80;;;;;;6342449;22;19978;-91
2022/03/27 02:43:02;;;;;;;;;;;12.00;53.80;;;;;;6314860;22;19914;-91
2022/03/27 02:45:28;;;;;;;;;;;12.10;53.70;;;;;;6344822;22;19902;-93
2022/03/27 02:48:00;;;;;;;;;;;12.10;53.70;;;;;;6342479;22;20368;-94
2022/03/27 02:50:26;;;;;;;;;;;12.10;53.50;;;;;;6316134;22;19914;-92
2022/03/27 02:52:52;;;;;;;;;;;12.00;53.30;;;;;;6344357;22;19933;-92
2022/03/27 02:55:17;;;;;;;;;;;12.00;53.40;;;;;;6343722;22;19911;-93
2022/03/27 02:57:43;;;;;;;;;;;12.00;53.30;;;;;;6341645;22;20275;-93
2022/03/27 03:00:09;;;;;;;;;;;11.90;53.10;;;;;;6315093;22;20204;-91
2022/03/27 03:02:35;;;;;;;;;;;11.80;53.10;;;;;;6341008;22;19902;-90
2022/03/27 03:05:01;;;;;;;;;;;11.80;53.00;;;;;;6342201;22;20319;-92
2022/03/27 03:07:26;;;;;;;;;;;11.80;53.00;;;;;;6342040;22;19907;-92
2022/03/27 03:09:53;;;;;;;;;;;11.80;53.00;;;;;;6341986;22;19910;-93
2022/03/27 03:12:19;;;;;;;;;;;11.70;52.90;;;;;;6315664;22;19910;-92
2022/03/27 03:14:44;;;;;;;;;;;11.70;53.00;;;;;;6342428;22;19936;-91
2022/03/27 03:17:10;;;;;;;;;;;11.60;53.00;;;;;;6341535;22;19934;-91
2022/03/27 03:19:35;;;;;;;;;;;11.50;53.00;;;;;;6339688;22;19913;-91
2022/03/27 03:22:01;;;;;;;;;;;11.50;53.10;;;;;;6342471;22;19914;-91
2022/03/27 03:24:28;;;;;;;;;;;11.40;52.90;;;;;;6342910;22;20323;-92
2022/03/27 03:26:57;;;;;;;;;;;11.30;53.00;;;;;;6341502;22;20327;-91
2022/03/27 03:29:23;;;;;;;;;;;11.40;53.20;;;;;;6315900;22;19911;-92
2022/03/27 03:31:48;;;;;;;;;;;11.30;53.20;;;;;;6315231;22;19917;-92
2022/03/27 03:34:14;;;;;;;;;;;11.40;53.10;;;;;;6343757;22;19918;-92
2022/03/27 03:36:41;;;;;;;;;;;11.40;53.30;;;;;;6316558;22;19914;-92
2022/03/27 03:39:06;;;;;;;;;;;11.30;53.30;;;;;;6315605;22;20335;-91
2022/03/27 03:41:32;;;;;;;;;;;11.30;53.60;;;;;;6315766;22;19938;-92
2022/03/27 03:43:57;;;;;;;;;;;11.30;53.90;;;;;;6341779;22;19953;-90
2022/03/27 03:46:24;;;;;;;;;;;11.30;54.00;;;;;;6341976;22;19918;-92
2022/03/27 03:48:50;;;;;;;;;;;11.30;53.90;;;;;;6342733;22;20268;-92
2022/03/27 03:51:16;;;;;;;;;;;11.30;54.00;;;;;;6342884;22;19910;-92
2022/03/27 03:53:41;;;;;;;;;;;11.30;54.00;;;;;;6343614;22;19918;-91
2022/03/27 03:56:07;;;;;;;;;;;11.20;54.00;;;;;;6341170;22;19954;-91
2022/03/27 03:58:32;;;;;;;;;;;11.20;54.20;;;;;;6342065;22;19910;-90
2022/03/27 04:00:58;;;;;;;;;;;11.20;54.10;;;;;;6340771;22;19907;-91
2022/03/27 04:03:23;;;;;;;;;;;11.10;53.90;;;;;;6344189;22;20316;-91
2022/03/27 04:05:48;;;;;;;;;;;11.10;53.70;;;;;;6343785;22;19991;-91
2022/03/27 04:08:14;;;;;;;;;;;11.00;53.70;;;;;;6344228;22;19910;-91
2022/03/27 04:10:41;;;;;;;;;;;11.00;53.50;;;;;;6315865;22;19953;-91
2022/03/27 04:13:06;;;;;;;;;;;10.90;53.30;;;;;;6315697;22;19918;-91
2022/03/27 04:15:32;;;;;;;;;;;10.90;53.60;;;;;;6343195;22;20283;-92
2022/03/27 04:18:00;;;;;;;;;;;10.80;53.60;;;;;;6342930;22;19910;-91
2022/03/27 04:20:25;;;;;;;;;;;10.80;53.50;;;;;;6344323;22;19925;-92
2022/03/27 04:22:51;;;;;;;;;;;10.70;53.60;;;;;;6316639;22;19911;-92
2022/03/27 04:25:16;;;;;;;;;;;10.70;53.60;;;;;;6342567;22;19906;-92
2022/03/27 04:27:42;;;;;;;;;;;10.60;53.60;;;;;;6316664;22;19913;-90
2022/03/27 04:30:09;;;;;;;;;;;10.50;53.30;;;;;;6317035;22;19914;-91
2022/03/27 04:32:35;;;;;;;;;;;10.50;53.30;;;;;;6315974;22;19918;-91
2022/03/27 04:35:01;;;;;;;;;;;10.40;53.10;;;;;;6316160;22;19915;-91
2022/03/27 04:37:26;;;;;;;;;;;10.30;53.10;;;;;;6316810;22;20311;-92
2022/03/27 04:39:52;;;;;;;;;;;10.30;53.30;;;;;;6342031;22;19922;-91
2022/03/27 04:42:17;;;;;;;;;;;10.30;53.50;;;;;;6342640;22;19968;-91
2022/03/27 04:44:43;;;;;;;;;;;10.20;53.50;;;;;;6344056;22;19929;-91
2022/03/27 04:47:08;;;;;;;;;;;10.20;53.50;;;;;;6343554;22;19917;-91
2022/03/27 04:49:33;;;;;;;;;;;10.20;53.50;;;;;;6344791;22;20279;-91
2022/03/27 04:51:59;;;;;;;;;;;10.20;53.70;;;;;;6342437;22;20295;-91
2022/03/27 04:54:24;;;;;;;;;;;10.20;54.10;;;;;;6344392;22;19922;-91
2022/03/27 04:56:50;;;;;;;;;;;10.30;54.10;;;;;;6317049;22;19914;-92
2022/03/27 04:59:16;;;;;;;;;;;10.30;54.30;;;;;;6316070;22;19915;-91
2022/03/27 05:01:42;;;;;;;;;;;10.50;54.40;;;;;;6316912;22;19906;-92
2022/03/27 05:04:08;;;;;;;;;;;10.50;54.40;;;;;;6317160;22;19937;-91
2022/03/27 05:06:34;;;;;;;;;;;10.60;54.50;;;;;;6316588;22;19907;-92
2022/03/27 05:09:00;;;;;;;;;;;10.70;54.60;;;;;;6316499;22;19917;-93
2022/03/27 05:11:28;;;;;;;;;;;10.70;54.60;;;;;;6341620;22;20004;-91
2022/03/27 05:13:56;;;;;;;;;;;10.80;54.80;;;;;;6315600;22;19922;-91
2022/03/27 05:16:22;;;;;;;;;;;10.90;54.60;;;;;;6316207;22;19918;-92
2022/03/27 05:18:48;;;;;;;;;;;11.10;54.60;;;;;;6340946;22;19914;-91
2022/03/27 05:21:14;;;;;;;;;;;11.10;54.50;;;;;;6342974;22;19903;-91
2022/03/27 05:23:40;;;;;;;;;;;11.20;54.40;;;;;;6315057;22;20052;-92
2022/03/27 05:26:05;;;;;;;;;;;11.30;54.40;;;;;;6315197;22;19907;-93
2022/03/27 05:28:32;;;;;;;;;;;11.40;54.10;;;;;;6341393;22;19917;-93
2022/03/27 05:30:57;;;;;;;;;;;11.50;54.10;;;;;;6315426;22;19985;-92
2022/03/27 05:33:23;;;;;;;;;;;11.60;54.00;;;;;;6315653;22;19918;-91
2022/03/27 05:35:49;;;;;;;;;;;11.70;53.90;;;;;;6315416;22;19910;-92
2022/03/27 05:38:14;;;;;;;;;;;11.70;53.90;;;;;;6343046;22;19940;-91
2022/03/27 05:40:40;;;;;;;;;;;11.80;53.70;;;;;;6342425;22;19934;-91
2022/03/27 05:43:06;;;;;;;;;;;11.90;53.70;;;;;;6341239;22;19910;-91
2022/03/27 05:45:31;;;;;;;;;;;11.90;53.60;;;;;;6343421;22;19906;-91
2022/03/27 05:47:57;;;;;;;;;;;12.00;53.60;;;;;;6343693;22;19911;-92
2022/03/27 05:50:22;;;;;;;;;;;12.00;53.60;;;;;;6342656;22;19910;-93
2022/03/27 05:52:49;;;;;;;;;;;12.10;53.60;;;;;;6343442;22;19919;-92
2022/03/27 05:55:14;;;;;;;;;;;12.10;53.60;;;;;;6343998;22;19922;-91
2022/03/27 05:57:40;;;;;;;;;;;12.20;53.50;;;;;;6339844;22;19907;-92
2022/03/27 06:00:07;;;;;;;;;;;12.20;53.50;;;;;;6343494;22;19907;-92
2022/03/27 06:02:33;;;;;;;;;;;12.30;53.40;;;;;;6315449;22;19906;-92
2022/03/27 06:04:59;;;;;;;;;;;12.40;53.30;;;;;;6344944;22;19960;-92
2022/03/27 06:07:24;;;;;;;;;;;12.40;53.20;;;;;;6342274;22;19907;-92
2022/03/27 06:09:51;;;;;;;;;;;12.50;53.20;;;;;;6343948;22;19915;-93
2022/03/27 06:12:16;;;;;;;;;;;12.50;53.10;;;;;;6341483;22;19937;-92
2022/03/27 06:14:42;;;;;;;;;;;12.60;53.00;;;;;;6315716;22;19919;-92
2022/03/27 06:17:08;;;;;;;;;;;12.70;52.90;;;;;;6316053;22;19928;-91
2022/03/27 06:19:34;;;;;;;;;;;12.70;52.80;;;;;;6340246;22;19911;-92
2022/03/27 06:21:59;;;;;;;;;;;12.80;52.70;;;;;;6340985;22;20211;-91
2022/03/27 06:24:25;;;;;;;;;;;12.80;52.50;;;;;;6343509;22;19986;-93
2022/03/27 06:26:51;;;;;;;;;;;12.90;52.40;;;;;;6343626;22;19910;-92
2022/03/27 06:29:16;;;;;;;;;;;13.00;52.40;;;;;;6315677;22;19907;-92
2022/03/27 06:31:42;;;;;;;;;;;13.00;52.30;;;;;;6342094;22;19959;-92
2022/03/27 06:34:07;;;;;;;;;;;13.10;52.10;;;;;;6342688;22;19915;-93
2022/03/27 06:36:34;;;;;;;;;;;13.20;52.00;;;;;;6340817;22;19956;-91
2022/03/27 06:39:00;;;;;;;;;;;13.20;52.10;;;;;;6313900;22;19942;-93
2022/03/27 06:41:26;;;;;;;;;;;13.30;52.00;;;;;;6313762;22;19910;-93
2022/03/27 06:43:51;;;;;;;;;;;13.40;51.80;;;;;;6316270;22;19907;-92
2022/03/27 06:46:17;;;;;;;;;;;13.50;51.80;;;;;;6316161;22;19917;-92
2022/03/27 06:48:43;;;;;;;;;;;13.60;51.60;;;;;;6344439;22;20311;-91
2022/03/27 06:51:09;;;;;;;;;;;13.60;51.20;;;;;;6316712;22;19964;-93
2022/03/27 06:53:34;;;;;;;;;;;13.70;51.20;;;;;;6342229;22;19914;-92
2022/03/27 06:56:00;;;;;;;;;;;13.80;51.30;;;;;;6316798;22;19911;-93
2022/03/27 06:58:25;;;;;;;;;;;13.80;51.10;;;;;;6343337;22;20384;-92
2022/03/27 07:03:35;;;;;;;;;;;14.10;50.70;;;;;;6345370;22;19929;-93
2022/03/27 07:06:01;;;;;;;;;;;14.10;50.50;;;;;;6344093;22;19911;-92
2022/03/27 07:08:26;;;;;;;;;;;14.20;50.30;;;;;;6317184;22;19907;-93
2022/03/27 07:10:52;;;;;;;;;;;14.20;50.10;;;;;;6342870;22;19940;-91
2022/03/27 07:13:18;;;;;;;;;;;14.30;49.80;;;;;;6342134;22;20245;-93
2022/03/27 07:15:45;;;;;;;;;;;14.30;49.80;;;;;;6318053;22;19997;-93
2022/03/27 07:18:11;;;;;;;;;;;14.40;49.80;;;;;;6321123;22;19906;-91
2022/03/27 07:20:38;;;;;;;;;;;14.40;49.70;;;;;;6317023;22;19921;-92
2022/03/27 07:23:05;;;;;;;;;;;14.50;49.70;;;;;;6316447;22;19938;-92
2022/03/27 07:25:35;;;;;;;;;;;14.60;49.60;;;;;;6315063;22;19914;-91
2022/03/27 07:28:01;;;;;;;;;;;14.70;49.50;;;;;;6317104;22;19985;-92
2022/03/27 07:30:27;;;;;;;;;;;14.80;49.20;;;;;;6318090;22;19918;-92
2022/03/27 07:32:52;;;;;;;;;;;14.90;49.20;;;;;;6344521;22;19907;-93
2022/03/27 07:35:18;;;;;;;;;;;14.90;49.40;;;;;;6318082;22;19918;-92
2022/03/27 07:37:44;;;;;;;;;;;15.10;49.10;;;;;;6317495;22;20315;-92
2022/03/27 07:40:10;;;;;;;;;;;15.20;48.80;;;;;;6317911;22;20347;-91
2022/03/27 07:42:37;;;;;;;;;;;15.30;48.60;;;;;;6345526;22;20527;-93
2022/03/27 07:45:03;;;;;;;;;;;15.40;48.10;;;;;;6317751;22;19917;-93
2022/03/27 07:47:28;;;;;;;;;;;15.40;47.90;;;;;;6345678;22;19914;-92
2022/03/27 07:49:54;;;;;;;;;;;15.50;48.20;;;;;;6343467;22;19910;-92
2022/03/27 07:52:20;;;;;;;;;;;15.60;48.30;;;;;;6344160;22;19907;-92
2022/03/27 07:54:45;;;;;;;;;;;15.70;47.90;;;;;;6316592;22;19915;-92
2022/03/27 07:57:11;;;;;;;;;;;15.80;47.50;;;;;;6344295;22;19901;-93
2022/03/27 07:59:37;;;;;;;;;;;15.90;47.40;;;;;;6346401;22;19912;-94
2022/03/27 08:02:02;;;;;;;;;;;16.10;47.50;;;;;;6348021;22;19906;-93
2022/03/27 08:04:28;;;;;;;;;;;16.30;47.50;;;;;;6345506;22;20282;-93
2022/03/27 08:06:53;;;;;;;;;;;16.50;47.60;;;;;;6343525;22;19910;-93
2022/03/27 08:09:19;;;;;;;;;;;16.80;47.50;;;;;;6342368;22;19914;-92
2022/03/27 08:11:45;;;;;;;;;;;17.00;47.20;;;;;;6342824;22;19910;-93
2022/03/27 08:14:10;;;;;;;;;;;17.10;46.50;;;;;;6343283;22;19915;-93
2022/03/27 08:16:37;;;;;;;;;;;17.20;46.30;;;;;;6344286;22;19910;-93
2022/03/27 08:19:03;;;;;;;;;;;17.40;46.30;;;;;;6347138;22;19910;-93
2022/03/27 08:21:28;;;;;;;;;;;17.50;45.70;;;;;;6347954;22;19911;-92
2022/03/27 08:23:54;;;;;;;;;;;17.70;45.30;;;;;;6346523;22;19906;-91
2022/03/27 08:29:04;;;;;;;;;;;17.70;44.90;;;;;;6347051;22;19918;-92
2022/03/27 08:31:33;;;;;;;;;;;17.60;44.40;;;;;;6320337;22;19914;-92
2022/03/27 08:33:58;;;;;;;;;;;17.50;44.70;;;;;;6346256;22;19915;-92
2022/03/27 08:36:24;;;;;;;;;;;17.60;44.60;;;;;;6319980;22;19921;-93
2022/03/27 08:38:51;;;;;;;;;;;17.60;44.70;;;;;;6347028;22;20303;-93
2022/03/27 08:41:16;;;;;;;;;;;17.70;44.60;;;;;;6346371;22;19930;-93
2022/03/27 08:43:43;;;;;;;;;;;17.80;44.50;;;;;;6346497;22;19906;-93
2022/03/27 08:46:09;;;;;;;;;;;17.90;44.30;;;;;;6320833;22;19910;-92
2022/03/27 08:48:36;;;;;;;;;;;17.90;43.80;;;;;;6347931;22;19909;-92
2022/03/27 08:51:08;;;;;;;;;;;17.90;43.80;;;;;;6320017;22;19993;-94
2022/03/27 08:53:54;;;;;;;;;;;17.90;43.90;;;;;;6318140;22;19911;-93
2022/03/27 08:56:20;;;;;;;;;;;18.10;44.10;;;;;;6346342;22;19964;-92
2022/03/27 08:58:45;;;;;;;;;;;18.30;43.90;;;;;;6345887;22;19907;-92
2022/03/27 09:01:11;;;;;;;;;;;18.50;44.00;;;;;;6344521;22;20276;-92
2022/03/27 09:03:37;;;;;;;;;;;18.80;43.80;;;;;;6344937;22;20361;-92
2022/03/27 09:06:04;;;;;;;;;;;19.10;43.50;;;;;;6344868;22;19933;-93
2022/03/27 09:08:32;;;;;;;;;;;19.40;43.40;;;;;;6317995;22;19930;-91
2022/03/27 09:10:58;;;;;;;;;;;19.70;43.30;;;;;;6346287;22;19913;-93
2022/03/27 09:13:25;;;;;;;;;;;20.00;43.20;;;;;;6342902;22;20339;-92
2022/03/27 09:15:58;;;;;;;;;;;20.30;42.60;;;;;;6317587;22;19907;-92
2022/03/27 09:18:24;;;;;;;;;;;20.60;41.30;;;;;;6318656;22;19945;-92
2022/03/27 09:20:53;;;;;;;;;;;20.80;41.20;;;;;;6344247;22;19915;-93
2022/03/27 09:23:22;;;;;;;;;;;21.10;40.70;;;;;;6317440;22;19903;-93
2022/03/27 09:25:50;;;;;;;;;;;21.30;40.50;;;;;;6319521;22;19910;-93
2022/03/27 09:28:27;;;;;;;;;;;21.50;39.70;;;;;;6318491;22;19902;-92
2022/03/27 09:30:53;;;;;;;;;;;21.70;39.60;;;;;;6318994;22;19960;-92
2022/03/27 09:33:39;;;;;;;;;;;21.90;39.50;;;;;;6323884;22;19903;-93
2022/03/27 09:36:04;;;;;;;;;;;22.20;39.00;;;;;;6324879;22;19989;-94
2022/03/27 09:38:30;;;;;;;;;;;22.50;39.00;;;;;;6323080;22;19911;-96
2022/03/27 09:40:55;;;;;;;;;;;22.90;38.60;;;;;;6317518;22;20023;-94
2022/03/27 09:43:22;;;;;;;;;;;23.10;37.20;;;;;;6346019;22;19906;-94
2022/03/27 09:45:58;;;;;;;;;;;23.30;36.50;;;;;;6345939;22;19907;-94
2022/03/27 09:48:24;;;;;;;;;;;23.50;36.30;;;;;;6316716;22;20334;-94
2022/03/27 09:50:52;;;;;;;;;;;23.80;36.50;;;;;;6345733;22;20318;-94
2022/03/27 09:53:23;;;;;;;;;;;24.30;36.10;;;;;;6316286;22;19906;-93
2022/03/27 09:55:52;;;;;;;;;;;24.80;35.60;;;;;;6315114;22;19918;-92
2022/03/27 09:58:32;;;;;;;;;;;25.40;35.10;;;;;;6316302;22;19907;-93
2022/03/27 10:01:17;;;;;;;;;;;25.90;33.80;;;;;;6320333;22;19910;-92
2022/03/27 10:04:02;;;;;;;;;;;26.30;32.80;;;;;;6344159;22;19906;-91
2022/03/27 10:06:28;;;;;;;;;;;26.90;32.90;;;;;;6317337;22;20242;-93
2022/03/27 10:08:54;;;;;;;;;;;27.40;31.90;;;;;;6316932;22;19929;-93
2022/03/27 10:11:23;;;;;;;;;;;27.90;31.90;;;;;;6347231;22;19910;-95
2022/03/27 10:13:50;;;;;;;;;;;28.40;31.10;;;;;;6319995;22;19927;-92
2022/03/27 10:16:16;;;;;;;;;;;28.80;30.40;;;;;;6316499;22;19992;-92
2022/03/27 10:18:42;;;;;;;;;;;29.20;30.00;;;;;;6341942;22;19913;-91
2022/03/27 10:21:07;;;;;;;;;;;29.50;29.30;;;;;;6315876;22;19906;-93
2022/03/27 10:23:34;;;;;;;;;;;29.80;28.50;;;;;;6315828;22;20299;-92
2022/03/27 10:26:02;;;;;;;;;;;29.90;27.90;;;;;;6314927;22;19911;-92
2022/03/27 10:28:29;;;;;;;;;;;30.20;27.80;;;;;;6342872;22;19956;-93
2022/03/27 10:30:54;;;;;;;;;;;30.60;27.80;;;;;;6315174;22;19914;-93
2022/03/27 10:33:23;;;;;;;;;;;30.80;26.90;;;;;;6317166;22;20277;-94
2022/03/27 10:35:57;;;;;;;;;;;31.00;26.10;;;;;;6343914;22;20295;-93
2022/03/27 10:38:35;;;;;;;;;;;31.20;26.40;;;;;;6315143;22;19917;-92
2022/03/27 10:41:16;;;;;;;;;;;31.30;25.30;;;;;;6343580;22;19944;-93
2022/03/27 10:43:44;;;;;;;;;;;31.40;25.30;;;;;;6319871;22;20461;-92
2022/03/27 10:46:14;;;;;;;;;;;31.70;24.90;;;;;;6316849;22;19907;-91
2022/03/27 10:48:42;;;;;;;;;;;31.80;24.40;;;;;;6344360;22;19985;-92
2022/03/27 10:51:09;;;;;;;;;;;31.80;24.10;;;;;;6343482;22;19914;-92
2022/03/27 10:53:35;;;;;;;;;;;31.80;24.20;;;;;;6315813;22;19919;-93
2022/03/27 10:56:00;;;;;;;;;;;32.00;23.70;;;;;;6341240;22;20251;-92
2022/03/27 10:58:33;;;;;;;;;;;31.80;23.10;;;;;;6342388;22;19922;-93
2022/03/27 11:00:59;;;;;;;;;;;31.80;23.60;;;;;;6343028;22;19963;-92
2022/03/27 11:03:43;;;;;;;;;;;32.00;23.40;;;;;;6315031;22;19915;-92
2022/03/27 11:06:24;;;;;;;;;;;32.20;23.20;;;;;;6341885;22;19931;-94
2022/03/27 11:08:51;;;;;;;;;;;32.50;23.30;;;;;;6315480;22;19960;-96
2022/03/27 11:11:35;;;;;;;;;;;32.60;23.00;;;;;;6316796;22;19895;-93
2022/03/27 11:14:01;;;;;;;;;;;32.80;23.00;;;;;;6318169;22;19922;-93
2022/03/27 11:16:28;;;;;;;;;;;32.80;22.40;;;;;;6348345;22;19911;-93
2022/03/27 11:18:53;;;;;;;;;;;32.90;22.10;;;;;;6346355;22;19906;-95
2022/03/27 11:21:27;;;;;;;;;;;33.00;21.80;;;;;;6348194;22;19914;-95
2022/03/27 11:23:53;;;;;;;;;;;33.00;21.90;;;;;;6322625;22;19987;-94
2022/03/27 11:26:29;;;;;;;;;;;33.00;22.20;;;;;;6317332;22;20183;-94
2022/03/27 11:28:59;;;;;;;;;;;33.20;22.10;;;;;;6316212;22;19934;-94
2022/03/27 11:31:30;;;;;;;;;;;33.30;21.80;;;;;;6315344;22;19918;-94
2022/03/27 11:34:07;;;;;;;;;;;33.50;21.80;;;;;;6288390;22;19937;-95
2022/03/27 11:36:34;;;;;;;;;;;33.60;21.60;;;;;;6316997;22;19977;-95
2022/03/27 11:39:11;;;;;;;;;;;33.70;21.40;;;;;;6316858;22;19915;-96
2022/03/27 11:41:43;;;;;;;;;;;33.70;21.00;;;;;;6323572;22;19911;-95
2022/03/27 11:44:22;;;;;;;;;;;33.60;20.70;;;;;;6322182;22;20702;-95
2022/03/27 11:47:01;;;;;;;;;;;33.60;20.60;;;;;;6321125;22;20340;-96
2022/03/27 11:49:39;;;;;;;;;;;33.50;20.30;;;;;;6324128;22;19910;-95
2022/03/27 11:52:14;;;;;;;;;;;33.50;20.50;;;;;;6320093;22;19911;-93
2022/03/27 11:54:40;;;;;;;;;;;33.60;20.60;;;;;;6317437;22;19915;-94
2022/03/27 11:57:09;;;;;;;;;;;33.80;20.60;;;;;;6318526;22;19926;-92
2022/03/27 11:59:48;;;;;;;;;;;33.90;20.60;;;;;;6318079;22;19922;-93
2022/03/27 12:02:18;;;;;;;;;;;34.20;20.50;;;;;;6318409;22;19911;-94
2022/03/27 12:04:54;;;;;;;;;;;34.20;19.80;;;;;;6318824;22;19947;-93
2022/03/27 12:07:24;;;;;;;;;;;34.20;20.00;;;;;;6317743;22;19961;-93
2022/03/27 12:10:03;;;;;;;;;;;34.30;20.30;;;;;;6318086;22;20338;-95
2022/03/27 12:12:32;;;;;;;;;;;34.60;20.20;;;;;;6318239;22;20412;-94
2022/03/27 12:15:00;;;;;;;;;;;34.60;19.90;;;;;;6317954;22;19910;-95
2022/03/27 12:17:32;;;;;;;;;;;34.70;19.80;;;;;;6286790;22;19926;-95
2022/03/27 12:20:04;;;;;;;;;;;34.70;19.00;;;;;;6260114;22;20274;-92
2022/03/27 12:22:34;;;;;;;;;;;34.50;18.80;;;;;;6283929;22;19922;-96
2022/03/27 12:25:00;;;;;;;;;;;34.20;18.90;;;;;;6281361;22;19908;-92
2022/03/27 12:30:10;;;;;;;;;;;34.00;19.10;;;;;;6281298;22;20003;-92
2022/03/27 12:32:36;;;;;;;;;;;33.80;18.60;;;;;;6282482;22;19911;-93
2022/03/27 12:35:02;;;;;;;;;;;33.50;18.50;;;;;;6281317;22;19915;-92
2022/03/27 12:37:29;;;;;;;;;;;33.20;18.30;;;;;;6281010;22;19918;-92
2022/03/27 12:39:54;;;;;;;;;;;33.00;18.40;;;;;;6282358;22;19951;-91
2022/03/27 12:42:32;;;;;;;;;;;32.80;18.40;;;;;;6281957;22;19922;-92
2022/03/27 12:45:03;;;;;;;;;;;32.80;18.80;;;;;;6280985;22;19939;-89
2022/03/27 12:47:33;;;;;;;;;;;32.90;18.80;;;;;;6281436;22;19911;-89
2022/03/27 12:49:58;;;;;;;;;;;32.90;18.50;;;;;;6279257;22;20201;-90
2022/03/27 12:52:24;;;;;;;;;;;32.80;18.60;;;;;;6278939;22;19918;-90
2022/03/27 12:54:56;;;;;;;;;;;32.80;18.50;;;;;;6281116;22;19930;-89
2022/03/27 12:57:21;;;;;;;;;;;32.70;18.20;;;;;;6280891;22;20247;-91
2022/03/27 12:59:48;;;;;;;;;;;32.70;18.60;;;;;;6280038;22;19912;-90
2022/03/27 13:02:24;;;;;;;;;;;32.80;18.70;;;;;;6279362;22;19918;-91
2022/03/27 13:05:02;;;;;;;;;;;32.80;18.00;;;;;;6279168;22;19911;-92
2022/03/27 13:07:47;;;;;;;;;;;32.70;17.90;;;;;;6278590;22;19912;-90
2022/03/27 13:10:12;;;;;;;;;;;32.40;18.10;;;;;;6254610;22;19998;-92
2022/03/27 13:12:38;;;;;;;;;;;32.00;18.10;;;;;;6253313;22;19915;-91
2022/03/27 13:15:04;;;;;;;;;;;31.80;18.00;;;;;;6279881;22;19998;-90
2022/03/27 13:17:30;;;;;;;;;;;31.40;18.30;;;;;;6279975;22;19918;-90
2022/03/27 13:19:55;;;;;;;;;;;31.20;18.30;;;;;;6291715;22;19907;-90
2022/03/27 13:22:23;;;;;;;;;;;31.00;18.60;;;;;;6266918;22;19927;-89
2022/03/27 13:24:49;;;;;;;;;;;31.00;18.50;;;;;;6290915;22;19926;-91
2022/03/27 13:27:16;;;;;;;;;;;30.80;18.70;;;;;;6293319;22;20286;-91
2022/03/27 13:29:41;;;;;;;;;;;30.60;19.00;;;;;;6287550;22;19911;-91
2022/03/27 13:32:08;;;;;;;;;;;30.30;19.30;;;;;;6280815;22;19908;-91
2022/03/27 13:34:34;;;;;;;;;;;29.90;19.60;;;;;;6280098;22;19927;-91
2022/03/27 13:37:00;;;;;;;;;;;29.60;20.20;;;;;;6277977;22;19911;-90
2022/03/27 13:39:27;;;;;;;;;;;29.20;20.60;;;;;;6278242;22;20339;-89
2022/03/27 13:44:41;;;;;;;;;;;28.20;21.00;;;;;;6285875;22;19918;-88
2022/03/27 13:47:09;;;;;;;;;;;27.50;21.20;;;;;;6285380;22;19913;-89
2022/03/27 13:49:35;;;;;;;;;;;26.80;21.40;;;;;;6280541;22;19911;-89
2022/03/27 13:52:00;;;;;;;;;;;26.20;21.90;;;;;;6285850;22;19907;-89
2022/03/27 13:54:26;;;;;;;;;;;25.80;22.50;;;;;;6282460;22;19926;-88
2022/03/27 13:56:54;;;;;;;;;;;25.30;23.00;;;;;;6286258;22;19915;-88
2022/03/27 13:59:20;;;;;;;;;;;25.00;23.40;;;;;;6281821;22;19918;-88
2022/03/27 14:01:46;;;;;;;;;;;24.60;23.80;;;;;;6284489;22;19911;-90
2022/03/27 14:04:13;;;;;;;;;;;24.30;24.10;;;;;;6282270;22;19908;-88
2022/03/27 14:06:40;;;;;;;;;;;24.10;24.30;;;;;;6284854;22;19915;-90
2022/03/27 14:09:05;;;;;;;;;;;23.80;24.40;;;;;;6285018;22;19918;-88
2022/03/27 14:11:32;;;;;;;;;;;23.60;24.60;;;;;;6287303;22;19911;-89
2022/03/27 14:13:58;;;;;;;;;;;23.50;24.90;;;;;;6259308;22;19912;-90
2022/03/27 14:16:24;;;;;;;;;;;23.20;25.10;;;;;;6285508;22;19915;-91
2022/03/27 14:18:50;;;;;;;;;;;23.10;25.20;;;;;;6278554;22;19969;-88
2022/03/27 14:21:16;;;;;;;;;;;22.90;25.50;;;;;;6278162;22;20635;-90
2022/03/27 14:23:41;;;;;;;;;;;22.70;25.70;;;;;;6277688;22;19914;-90
2022/03/27 14:26:09;;;;;;;;;;;22.60;26.00;;;;;;6279456;22;20348;-89
2022/03/27 14:28:35;;;;;;;;;;;22.50;26.30;;;;;;6277506;22;19903;-90